Doyle Atmospheric Data: 05/24/2022 Summary  Detailed Graphs  Station List

  Temperature     Wind Precipitation Visibility
Timestamp Air Wet
Bulb
Dew-
point
24-hr
Max
24-hr
Min
Relative
Humidity
Atmospheric
Pressure
Avg
Speed
Avg
Dir
Spot
Speed
Spot
Dir
Max
Speed
Max
Dir
  Rate Situation Start End 1 hr 3 hr 6 hr 12 hr 24 hr   Situation
Date Time °F °F °F °F °F % in Hg mph ° mph ° mph ° Y/N in/hr text Date Time Date Time in in in in in mi text
05/24/2022 12:04 AM 53.60 42.98 29.12 75.02 33.44 38.0 Not Reported 6.93 NW 7.16 W 8.28 NW No 0.000 No Precipitation 05/10/2022 05:29 PM 05/10/2022 05:34 PM 0.000 0.000 0.000 0.000 0.000 Not Reported Not Reported
05/24/2022 12:09 AM 54.68 43.52 29.12 75.02 33.44 36.0 Not Reported 7.16 NW 7.61 NW 7.83 NW No 0.000 No Precipitation 05/10/2022 05:29 PM 05/10/2022 05:34 PM 0.000 0.000 0.000 0.000 0.000 Not Reported Not Reported
05/24/2022 12:14 AM 54.50 43.52 29.84 75.02 33.44 38.0 Not Reported 7.16 NW 7.83 NW 7.83 NW No 0.000 No Precipitation 05/10/2022 05:29 PM 05/10/2022 05:34 PM 0.000 0.000 0.000 0.000 0.000 Not Reported Not Reported
05/24/2022 12:19 AM 52.70 42.80 30.38 75.02 33.44 41.0 Not Reported 8.05 NW 7.83 NW 8.28 NW No 0.000 No Precipitation 05/10/2022 05:29 PM 05/10/2022 05:34 PM 0.000 0.000 0.000 0.000 0.000 Not Reported Not Reported
05/24/2022 12:24 AM 51.62 42.26 30.56 75.02 33.44 43.0 Not Reported 8.05 NW 9.17 NW 9.17 NW No 0.000 No Precipitation 05/10/2022 05:29 PM 05/10/2022 05:34 PM 0.000 0.000 0.000 0.000 0.000 Not Reported Not Reported
05/24/2022 12:29 AM 50.54 41.90 31.10 75.02 33.44 46.0 Not Reported 8.72 NW 9.17 NW 9.17 NW No 0.000 No Precipitation 05/10/2022 05:29 PM 05/10/2022 05:34 PM 0.000 0.000 0.000 0.000 0.000 Not Reported Not Reported
05/24/2022 12:34 AM 50.00 41.54 30.74 75.02 33.44 47.0 Not Reported 8.72 NW 8.95 NW 9.84 NW No 0.000 No Precipitation 05/10/2022 05:29 PM 05/10/2022 05:34 PM 0.000 0.000 0.000 0.000 0.000 Not Reported Not Reported
05/24/2022 12:39 AM 50.18 41.36 29.84 75.02 33.44 44.0 Not Reported 8.28 NW 8.28 N 9.84 NW No 0.000 No Precipitation 05/10/2022 05:29 PM 05/10/2022 05:34 PM 0.000 0.000 0.000 0.000 0.000 Not Reported Not Reported
05/24/2022 12:44 AM 50.54 41.90 31.10 75.02 33.44 46.0 Not Reported 6.49 N 4.92 N 8.95 NW No 0.000 No Precipitation 05/10/2022 05:29 PM 05/10/2022 05:34 PM 0.000 0.000 0.000 0.000 0.000 Not Reported Not Reported
05/24/2022 12:49 AM 49.82 41.54 31.10 75.02 33.44 47.0 Not Reported 2.46 N 0.45 NW 8.28 N No 0.000 No Precipitation 05/10/2022 05:29 PM 05/10/2022 05:34 PM 0.000 0.000 0.000 0.000 0.000 Not Reported Not Reported
05/24/2022 12:54 AM 49.28 41.54 32.00 75.02 33.44 50.0 Not Reported 2.24 E 2.91 E 4.03 N No 0.000 No Precipitation 05/10/2022 05:29 PM 05/10/2022 05:34 PM 0.000 0.000 0.000 0.000 0.000 Not Reported Not Reported
05/24/2022 12:59 AM 50.54 41.90 31.82 75.02 33.44 47.0 Not Reported 3.80 E 2.68 E 4.47 E No 0.000 No Precipitation 05/10/2022 05:29 PM 05/10/2022 05:34 PM 0.000 0.000 0.000 0.000 0.000 Not Reported Not Reported
05/24/2022 01:04 AM 50.00 41.54 30.38 75.02 33.44 46.0 Not Reported 1.57 N 2.68 N 4.47 E No 0.000 No Precipitation 05/10/2022 05:29 PM 05/10/2022 05:34 PM 0.000 0.000 0.000 0.000 0.000 Not Reported Not Reported
05/24/2022 01:09 AM 51.26 42.08 30.02 75.02 33.44 43.0 Not Reported 2.24 N 2.91 N 4.03 NW No 0.000 No Precipitation 05/10/2022 05:29 PM 05/10/2022 05:34 PM 0.000 0.000 0.000 0.000 0.000 Not Reported Not Reported
05/24/2022 01:14 AM 50.90 42.08 30.92 75.02 33.44 45.0 Not Reported 1.34 SW 0.00 W 4.47 N No 0.000 No Precipitation 05/10/2022 05:29 PM 05/10/2022 05:34 PM 0.000 0.000 0.000 0.000 0.000 Not Reported Not Reported
05/24/2022 01:19 AM 49.82 41.36 30.56 75.02 33.44 46.0 Not Reported 0.00 N 0.45 S 4.47 N No 0.000 No Precipitation 05/10/2022 05:29 PM 05/10/2022 05:34 PM 0.000 0.000 0.000 0.000 0.000 Not Reported Not Reported
05/24/2022 01:24 AM 50.00 41.36 30.02 75.02 33.44 45.0 Not Reported 0.22 SE 0.89 SE 1.12 SE No 0.000 No Precipitation 05/10/2022 05:29 PM 05/10/2022 05:34 PM 0.000 0.000 0.000 0.000 0.000 Not Reported Not Reported
05/24/2022 01:29 AM 49.10 41.72 32.54 75.02 33.44 52.0 Not Reported 1.57 S 1.57 SE 1.79 SE No 0.000 No Precipitation 05/10/2022 05:29 PM 05/10/2022 05:34 PM 0.000 0.000 0.000 0.000 0.000 Not Reported Not Reported
05/24/2022 01:34 AM 50.36 41.90 30.74 75.02 33.44 46.0 Not Reported 1.57 N 0.22 W 3.13 N No 0.000 No Precipitation 05/10/2022 05:29 PM 05/10/2022 05:34 PM 0.000 0.000 0.000 0.000 0.000 Not Reported Not Reported
05/24/2022 01:39 AM 49.28 40.82 29.84 75.02 33.44 46.0 Not Reported 0.22 SW 0.00 SE 3.13 N No 0.000 No Precipitation 05/10/2022 05:29 PM 05/10/2022 05:34 PM 0.000 0.000 0.000 0.000 0.000 Not Reported Not Reported
05/24/2022 01:44 AM 51.44 42.08 30.20 75.02 33.44 43.0 Not Reported 0.00 W 0.00 SW 0.89 SW No 0.000 No Precipitation 05/10/2022 05:29 PM 05/10/2022 05:34 PM 0.000 0.000 0.000 0.000 0.000 Not Reported Not Reported
05/24/2022 01:49 AM 51.26 41.90 30.02 75.02 33.44 43.0 Not Reported 0.00 SE 0.22 SE 0.89 SW No 0.000 No Precipitation 05/10/2022 05:29 PM 05/10/2022 05:34 PM 0.000 0.000 0.000 0.000 0.000 Not Reported Not Reported
05/24/2022 01:54 AM 49.10 41.00 30.56 75.02 33.44 48.0 Not Reported 0.67 SE 0.67 SE 1.34 S No 0.000 No Precipitation 05/10/2022 05:29 PM 05/10/2022 05:34 PM 0.000 0.000 0.000 0.000 0.000 Not Reported Not Reported
05/24/2022 01:59 AM 48.20 40.46 30.38 75.02 33.44 49.0 Not Reported 0.00 SE 0.00 NW 1.34 S No 0.000 No Precipitation 05/10/2022 05:29 PM 05/10/2022 05:34 PM 0.000 0.000 0.000 0.000 0.000 Not Reported Not Reported
05/24/2022 02:04 AM 48.38 41.00 31.64 75.02 33.44 51.0 Not Reported 0.00 N 0.00 N 0.89 SE No 0.000 No Precipitation 05/10/2022 05:29 PM 05/10/2022 05:34 PM 0.000 0.000 0.000 0.000 0.000 Not Reported Not Reported
05/24/2022 02:09 AM 46.76 39.92 31.10 75.02 33.44 53.0 Not Reported 1.12 NW 1.12 NW 2.01 E No 0.000 No Precipitation 05/10/2022 05:29 PM 05/10/2022 05:34 PM 0.000 0.000 0.000 0.000 0.000 Not Reported Not Reported
05/24/2022 02:14 AM 47.48 40.28 30.56 75.02 33.44 51.0 Not Reported 2.24 NW 2.01 NW 2.91 NW No 0.000 No Precipitation 05/10/2022 05:29 PM 05/10/2022 05:34 PM 0.000 0.000 0.000 0.000 0.000 Not Reported Not Reported
05/24/2022 02:19 AM 48.20 40.64 30.74 75.02 33.44 50.0 Not Reported 3.13 NW 2.24 NW 3.58 NW No 0.000 No Precipitation 05/10/2022 05:29 PM 05/10/2022 05:34 PM 0.000 0.000 0.000 0.000 0.000 Not Reported Not Reported
05/24/2022 02:24 AM 47.66 40.46 31.10 75.02 33.44 52.0 Not Reported 2.24 NW 2.46 NW 3.58 NW No 0.000 No Precipitation 05/10/2022 05:29 PM 05/10/2022 05:34 PM 0.000 0.000 0.000 0.000 0.000 Not Reported Not Reported
05/24/2022 02:29 AM 47.84 40.46 30.92 75.02 33.44 51.0 Not Reported 2.24 NW 2.24 NW 4.03 NW No 0.000 No Precipitation 05/10/2022 05:29 PM 05/10/2022 05:34 PM 0.000 0.000 0.000 0.000 0.000 Not Reported Not Reported
05/24/2022 02:34 AM 48.20 40.46 30.56 75.02 33.44 49.0 Not Reported 2.01 NW 2.91 W 4.03 NW No 0.000 No Precipitation 05/10/2022 05:29 PM 05/10/2022 05:34 PM 0.000 0.000 0.000 0.000 0.000 Not Reported Not Reported
05/24/2022 02:39 AM 48.20 40.64 30.92 75.02 33.44 50.0 Not Reported 2.68 NW 3.80 W 3.80 W No 0.000 No Precipitation 05/10/2022 05:29 PM 05/10/2022 05:34 PM 0.000 0.000 0.000 0.000 0.000 Not Reported Not Reported
05/24/2022 02:44 AM 50.72 41.72 30.20 75.02 33.44 44.0 Not Reported 3.80 NW 4.47 W 4.47 W No 0.000 No Precipitation 05/10/2022 05:29 PM 05/10/2022 05:34 PM 0.000 0.000 0.000 0.000 0.000 Not Reported Not Reported
05/24/2022 02:49 AM 49.46 41.36 31.10 75.02 33.44 48.0 Not Reported 2.46 NW 2.68 NW 4.47 W No 0.000 No Precipitation 05/10/2022 05:29 PM 05/10/2022 05:34 PM 0.000 0.000 0.000 0.000 0.000 Not Reported Not Reported
05/24/2022 02:54 AM 49.64 41.36 30.56 75.02 33.44 47.0 Not Reported 4.47 W 4.25 W 4.70 W No 0.000 No Precipitation 05/10/2022 05:29 PM 05/10/2022 05:34 PM 0.000 0.000 0.000 0.000 0.000 Not Reported Not Reported
05/24/2022 02:59 AM 48.74 41.00 31.10 75.02 33.44 50.0 Not Reported 5.37 W 4.70 W 5.82 W No 0.000 No Precipitation 05/10/2022 05:29 PM 05/10/2022 05:34 PM 0.000 0.000 0.000 0.000 0.000 Not Reported Not Reported
05/24/2022 03:04 AM 47.84 40.28 30.56 75.02 33.44 50.0 Not Reported 4.03 W 3.36 W 5.82 W No 0.000 No Precipitation 05/10/2022 05:29 PM 05/10/2022 05:34 PM 0.000 0.000 0.000 0.000 0.000 Not Reported Not Reported
05/24/2022 03:09 AM 47.48 40.28 30.92 75.02 33.44 51.0 Not Reported 2.91 W 3.13 W 4.25 W No 0.000 No Precipitation 05/10/2022 05:29 PM 05/10/2022 05:34 PM 0.000 0.000 0.000 0.000 0.000 Not Reported Not Reported
05/24/2022 03:14 AM 47.30 40.28 31.10 75.02 33.44 52.0 Not Reported 3.13 W 2.68 W 3.58 W No 0.000 No Precipitation 05/10/2022 05:29 PM 05/10/2022 05:34 PM 0.000 0.000 0.000 0.000 0.000 Not Reported Not Reported
05/24/2022 03:19 AM 46.04 39.56 30.92 75.02 33.44 55.0 Not Reported 4.03 W 2.91 SW 4.47 W No 0.000 No Precipitation 05/10/2022 05:29 PM 05/10/2022 05:34 PM 0.000 0.000 0.000 0.000 0.000 Not Reported Not Reported
05/24/2022 03:24 AM 45.86 39.38 31.10 75.02 33.44 55.0 Not Reported 3.36 SW 3.58 SW 4.47 W No 0.000 No Precipitation 05/10/2022 05:29 PM 05/10/2022 05:34 PM 0.000 0.000 0.000 0.000 0.000 Not Reported Not Reported
05/24/2022 03:29 AM 45.50 39.20 30.74 75.02 33.44 55.0 Not Reported 2.91 SW 1.79 SW 4.03 SW No 0.000 No Precipitation 05/10/2022 05:29 PM 05/10/2022 05:34 PM 0.000 0.000 0.000 0.000 0.000 Not Reported Not Reported
05/24/2022 03:34 AM 44.42 39.02 32.00 75.02 33.44 60.0 Not Reported 3.58 SW 3.13 SW 4.03 SW No 0.000 No Precipitation 05/10/2022 05:29 PM 05/10/2022 05:34 PM 0.000 0.000 0.000 0.000 0.000 Not Reported Not Reported
05/24/2022 03:39 AM 45.68 39.38 31.10 75.02 33.44 56.0 Not Reported 3.13 SW 2.91 SW 3.80 SW No 0.000 No Precipitation 05/10/2022 05:29 PM 05/10/2022 05:34 PM 0.000 0.000 0.000 0.000 0.000 Not Reported Not Reported
05/24/2022 03:44 AM 47.12 40.10 31.10 75.02 33.44 53.0 Not Reported 3.13 W 2.46 W 3.58 W No 0.000 No Precipitation 05/10/2022 05:29 PM 05/10/2022 05:34 PM 0.000 0.000 0.000 0.000 0.000 Not Reported Not Reported
05/24/2022 03:49 AM 45.86 39.56 31.28 75.02 33.44 56.0 Not Reported 3.58 W 3.13 W 4.03 W No 0.000 No Precipitation 05/10/2022 05:29 PM 05/10/2022 05:34 PM 0.000 0.000 0.000 0.000 0.000 Not Reported Not Reported
05/24/2022 03:54 AM 45.32 39.56 31.82 75.02 33.44 58.0 Not Reported 4.25 W 3.80 W 4.25 W No 0.000 No Precipitation 05/10/2022 05:29 PM 05/10/2022 05:34 PM 0.000 0.000 0.000 0.000 0.000 Not Reported Not Reported
05/24/2022 03:59 AM 45.86 39.74 31.82 75.02 33.44 57.0 Not Reported 2.46 NW 2.46 NW 4.25 W No 0.000 No Precipitation 05/10/2022 05:29 PM 05/10/2022 05:34 PM 0.000 0.000 0.000 0.000 0.000 Not Reported Not Reported
05/24/2022 04:04 AM 45.32 39.38 31.82 75.02 33.44 58.0 Not Reported 3.58 W 4.03 W 4.70 W No 0.000 No Precipitation 05/10/2022 05:29 PM 05/10/2022 05:34 PM 0.000 0.000 0.000 0.000 0.000 Not Reported Not Reported
05/24/2022 04:09 AM 46.76 40.28 32.00 75.02 33.44 56.0 Not Reported 4.25 W 5.14 W 5.14 W No 0.000 No Precipitation 05/10/2022 05:29 PM 05/10/2022 05:34 PM 0.000 0.000 0.000 0.000 0.000 Not Reported Not Reported
05/24/2022 04:14 AM 47.12 40.46 32.00 75.02 33.44 54.0 Not Reported 5.14 W 3.80 W 5.82 W No 0.000 No Precipitation 05/10/2022 05:29 PM 05/10/2022 05:34 PM 0.000 0.000 0.000 0.000 0.000 Not Reported Not Reported
05/24/2022 04:19 AM 47.84 40.82 32.00 75.02 33.44 54.0 Not Reported 3.58 W 2.01 W 5.82 W No 0.000 No Precipitation 05/10/2022 05:29 PM 05/10/2022 05:34 PM 0.000 0.000 0.000 0.000 0.000 Not Reported Not Reported
05/24/2022 04:24 AM 47.12 40.64 32.18 75.02 33.44 55.0 Not Reported 1.57 W 1.79 NW 4.03 W No 0.000 No Precipitation 05/10/2022 05:29 PM 05/10/2022 05:34 PM 0.000 0.000 0.000 0.000 0.000 Not Reported Not Reported
05/24/2022 04:29 AM 46.04 40.10 32.36 75.02 33.44 58.0 Not Reported 1.79 W 3.36 W 3.36 W No 0.000 No Precipitation 05/10/2022 05:29 PM 05/10/2022 05:34 PM 0.000 0.000 0.000 0.000 0.000 Not Reported Not Reported
05/24/2022 04:34 AM 43.70 38.48 31.82 75.02 33.44 62.0 Not Reported 4.47 W 5.59 W 5.59 W No 0.000 No Precipitation 05/10/2022 05:29 PM 05/10/2022 05:34 PM 0.000 0.000 0.000 0.000 0.000 Not Reported Not Reported
05/24/2022 04:39 AM 45.14 39.56 32.18 75.02 33.44 60.0 Not Reported 5.14 W 6.93 W 6.93 W No 0.000 No Precipitation 05/10/2022 05:29 PM 05/10/2022 05:34 PM 0.000 0.000 0.000 0.000 0.000 Not Reported Not Reported
05/24/2022 04:44 AM 45.68 39.74 32.00 75.02 33.44 58.0 Not Reported 6.71 W 6.71 SW 6.93 W No 0.000 No Precipitation 05/10/2022 05:29 PM 05/10/2022 05:34 PM 0.000 0.000 0.000 0.000 0.000 Not Reported Not Reported
05/24/2022 04:49 AM 44.42 39.02 31.82 75.02 33.44 60.0 Not Reported 6.26 SW 4.47 SW 6.93 W No 0.000 No Precipitation 05/10/2022 05:29 PM 05/10/2022 05:34 PM 0.000 0.000 0.000 0.000 0.000 Not Reported Not Reported
05/24/2022 04:54 AM 44.96 39.38 32.00 75.02 33.44 59.0 Not Reported 4.92 W 5.14 W 6.71 SW No 0.000 No Precipitation 05/10/2022 05:29 PM 05/10/2022 05:34 PM 0.000 0.000 0.000 0.000 0.000 Not Reported Not Reported
05/24/2022 04:59 AM 44.60 39.20 32.00 75.02 33.44 60.0 Not Reported 4.92 W 0.00 NW 5.37 W No 0.000 No Precipitation 05/10/2022 05:29 PM 05/10/2022 05:34 PM 0.000 0.000 0.000 0.000 0.000 Not Reported Not Reported
05/24/2022 05:04 AM 39.02 34.88 28.76 75.02 33.44 66.0 Not Reported 0.00 E 2.24 SE 5.37 W No 0.000 No Precipitation 05/10/2022 05:29 PM 05/10/2022 05:34 PM 0.000 0.000 0.000 0.000 0.000 Not Reported Not Reported
05/24/2022 05:09 AM 38.12 34.16 28.40 75.02 33.44 67.0 Not Reported 0.22 SE 2.24 SE 2.24 SE No 0.000 No Precipitation 05/10/2022 05:29 PM 05/10/2022 05:34 PM 0.000 0.000 0.000 0.000 0.000 Not Reported Not Reported
05/24/2022 05:14 AM 36.86 33.44 28.58 75.02 33.44 71.0 Not Reported 1.34 SE 1.57 E 2.24 SE No 0.000 No Precipitation 05/10/2022 05:29 PM 05/10/2022 05:34 PM 0.000 0.000 0.000 0.000 0.000 Not Reported Not Reported
05/24/2022 05:19 AM 36.14 33.26 28.76 75.02 33.44 73.0 Not Reported 1.57 SE 4.03 SE 4.03 SE No 0.000 No Precipitation 05/10/2022 05:29 PM 05/10/2022 05:34 PM 0.000 0.000 0.000 0.000 0.000 Not Reported Not Reported
05/24/2022 05:24 AM 35.60 32.36 27.50 75.02 33.44 71.0 Not Reported 2.24 SE 1.79 S 4.03 SE No 0.000 No Precipitation 05/10/2022 05:29 PM 05/10/2022 05:34 PM 0.000 0.000 0.000 0.000 0.000 Not Reported Not Reported
05/24/2022 05:29 AM 35.42 32.72 28.58 75.02 33.44 75.0 Not Reported 2.68 SE 2.91 SE 3.80 SE No 0.000 No Precipitation 05/10/2022 05:29 PM 05/10/2022 05:34 PM 0.000 0.000 0.000 0.000 0.000 Not Reported Not Reported
05/24/2022 05:34 AM 35.60 33.08 29.48 75.02 33.44 77.0 Not Reported 2.24 S 2.46 SE 2.91 S No 0.000 No Precipitation 05/10/2022 05:29 PM 05/10/2022 05:34 PM 0.000 0.000 0.000 0.000 0.000 Not Reported Not Reported
05/24/2022 05:39 AM 35.78 33.44 30.20 75.02 33.44 79.0 Not Reported 2.46 SE 2.68 SE 2.91 S No 0.000 No Precipitation 05/10/2022 05:29 PM 05/10/2022 05:34 PM 0.000 0.000 0.000 0.000 0.000 Not Reported Not Reported
05/24/2022 05:44 AM 36.68 34.34 31.10 75.02 33.44 79.0 Not Reported 3.13 S 3.13 SE 4.25 S No 0.000 No Precipitation 05/10/2022 05:29 PM 05/10/2022 05:34 PM 0.000 0.000 0.000 0.000 0.000 Not Reported Not Reported
05/24/2022 05:49 AM 35.06 32.90 29.66 75.02 33.44 79.0 Not Reported 3.13 SE 4.03 SE 4.25 S No 0.000 No Precipitation 05/10/2022 05:29 PM 05/10/2022 05:34 PM 0.000 0.000 0.000 0.000 0.000 Not Reported Not Reported
05/24/2022 05:54 AM 34.16 32.00 28.58 75.02 33.44 79.0 Not Reported 4.92 SE 3.58 SE 5.59 SE No 0.000 No Precipitation 05/10/2022 05:29 PM 05/10/2022 05:34 PM 0.000 0.000 0.000 0.000 0.000 Not Reported Not Reported
05/24/2022 05:59 AM 34.34 32.18 29.12 75.02 33.98 81.0 Not Reported 4.03 SE 3.36 S 5.59 SE No 0.000 No Precipitation 05/10/2022 05:29 PM 05/10/2022 05:34 PM 0.000 0.000 0.000 0.000 0.000 Not Reported Not Reported
05/24/2022 06:04 AM 34.70 32.90 30.20 75.02 33.98 83.0 Not Reported 4.92 S 4.47 S 4.92 S No 0.000 No Precipitation 05/10/2022 05:29 PM 05/10/2022 05:34 PM 0.000 0.000 0.000 0.000 0.000 Not Reported Not Reported
05/24/2022 06:09 AM 35.60 33.62 30.74 75.02 33.98 81.0 Not Reported 4.70 S 4.92 S 5.14 S No 0.000 No Precipitation 05/10/2022 05:29 PM 05/10/2022 05:34 PM 0.000 0.000 0.000 0.000 0.000 Not Reported Not Reported
05/24/2022 06:14 AM 36.32 33.98 30.74 75.02 33.98 79.0 Not Reported 4.03 S 3.80 S 5.14 S No 0.000 No Precipitation 05/10/2022 05:29 PM 05/10/2022 05:34 PM 0.000 0.000 0.000 0.000 0.000 Not Reported Not Reported
05/24/2022 06:19 AM 37.04 34.34 30.74 75.02 33.98 77.0 Not Reported 2.01 SE 1.34 S 4.70 S No 0.000 No Precipitation 05/10/2022 05:29 PM 05/10/2022 05:34 PM 0.000 0.000 0.000 0.000 0.000 Not Reported Not Reported
05/24/2022 06:24 AM 36.32 33.80 30.56 75.02 33.98 79.0 Not Reported 0.45 SE 0.67 S 3.13 S No 0.000 No Precipitation 05/10/2022 05:29 PM 05/10/2022 05:34 PM 0.000 0.000 0.000 0.000 0.000 Not Reported Not Reported
05/24/2022 06:29 AM 37.40 34.52 30.38 75.02 33.98 74.0 Not Reported 1.12 SE 1.57 SE 1.79 SE No 0.000 No Precipitation 05/10/2022 05:29 PM 05/10/2022 05:34 PM 0.000 0.000 0.000 0.000 0.000 Not Reported Not Reported
05/24/2022 06:34 AM 37.40 34.52 30.38 75.02 33.98 75.0 Not Reported 1.79 SE 1.79 SE 2.46 SE No 0.000 No Precipitation 05/10/2022 05:29 PM 05/10/2022 05:34 PM 0.000 0.000 0.000 0.000 0.000 Not Reported Not Reported
05/24/2022 06:39 AM 39.56 36.14 31.28 75.02 33.98 71.0 Not Reported 2.24 E 2.68 E 2.91 E No 0.000 No Precipitation 05/10/2022 05:29 PM 05/10/2022 05:34 PM 0.000 0.000 0.000 0.000 0.000 Not Reported Not Reported
05/24/2022 06:44 AM 39.20 35.78 31.10 75.02 33.98 71.0 Not Reported 1.34 E 1.12 SE 2.91 E No 0.000 No Precipitation 05/10/2022 05:29 PM 05/10/2022 05:34 PM 0.000 0.000 0.000 0.000 0.000 Not Reported Not Reported
05/24/2022 06:49 AM 39.92 36.32 31.64 75.02 33.98 71.0 Not Reported 0.67 S 0.67 S 2.91 E No 0.000 No Precipitation 05/10/2022 05:29 PM 05/10/2022 05:34 PM 0.000 0.000 0.000 0.000 0.000 Not Reported Not Reported
05/24/2022 06:54 AM 40.82 36.86 31.82 75.02 33.98 69.0 Not Reported 1.12 S 0.89 S 1.34 S No 0.000 No Precipitation 05/10/2022 05:29 PM 05/10/2022 05:34 PM 0.000 0.000 0.000 0.000 0.000 Not Reported Not Reported
05/24/2022 06:59 AM 42.26 38.30 33.08 75.02 33.98 69.0 Not Reported 1.12 SW 1.34 SW 1.57 SW No 0.000 No Precipitation 05/10/2022 05:29 PM 05/10/2022 05:34 PM 0.000 0.000 0.000 0.000 0.000 Not Reported Not Reported
05/24/2022 07:04 AM 44.42 39.74 33.98 75.02 33.98 66.0 Not Reported 0.89 SW 1.12 SW 1.57 S No 0.000 No Precipitation 05/10/2022 05:29 PM 05/10/2022 05:34 PM 0.000 0.000 0.000 0.000 0.000 Not Reported Not Reported
05/24/2022 07:09 AM 45.68 41.18 35.60 75.02 33.98 67.0 Not Reported 1.57 SW 0.89 W 1.79 SW No 0.000 No Precipitation 05/10/2022 05:29 PM 05/10/2022 05:34 PM 0.000 0.000 0.000 0.000 0.000 Not Reported Not Reported
05/24/2022 07:14 AM 46.76 41.18 34.34 75.02 33.98 61.0 Not Reported 0.00 W 0.00 NW 1.79 SW No 0.000 No Precipitation 05/10/2022 05:29 PM 05/10/2022 05:34 PM 0.000 0.000 0.000 0.000 0.000 Not Reported Not Reported
05/24/2022 07:19 AM 48.20 42.44 35.42 75.02 33.98 60.0 Not Reported 0.00 N 0.00 E 1.12 W No 0.000 No Precipitation 05/10/2022 05:29 PM 05/10/2022 05:34 PM 0.000 0.000 0.000 0.000 0.000 Not Reported Not Reported
05/24/2022 07:24 AM 49.82 43.70 36.86 75.02 33.98 60.0 Not Reported 0.67 N 0.00 N 0.89 N No 0.000 No Precipitation 05/10/2022 05:29 PM 05/10/2022 05:34 PM 0.000 0.000 0.000 0.000 0.000 Not Reported Not Reported
05/24/2022 07:29 AM 50.18 43.34 35.42 75.02 33.98 56.0 Not Reported 0.00 NW 0.45 NW 0.89 N No 0.000 No Precipitation 05/10/2022 05:29 PM 05/10/2022 05:34 PM 0.000 0.000 0.000 0.000 0.000 Not Reported Not Reported
05/24/2022 07:34 AM 51.26 44.06 35.96 75.02 33.98 55.0 Not Reported 0.89 W 1.79 W 2.01 W No 0.000 No Precipitation 05/10/2022 05:29 PM 05/10/2022 05:34 PM 0.000 0.000 0.000 0.000 0.000 Not Reported Not Reported
05/24/2022 07:39 AM 52.70 44.78 35.96 75.02 33.98 52.0 Not Reported 2.46 NW 4.03 NW 4.03 NW No 0.000 No Precipitation 05/10/2022 05:29 PM 05/10/2022 05:34 PM 0.000 0.000 0.000 0.000 0.000 Not Reported Not Reported
05/24/2022 07:44 AM 53.78 45.50 36.32 75.02 33.98 51.0 Not Reported 4.25 N 3.13 N 4.92 N No 0.000 No Precipitation 05/10/2022 05:29 PM 05/10/2022 05:34 PM 0.000 0.000 0.000 0.000 0.000 Not Reported Not Reported
05/24/2022 07:49 AM 54.68 45.68 35.42 75.02 33.98 48.0 Not Reported 4.25 N 6.26 N 6.26 N No 0.000 No Precipitation 05/10/2022 05:29 PM 05/10/2022 05:34 PM 0.000 0.000 0.000 0.000 0.000 Not Reported Not Reported
05/24/2022 07:54 AM 55.40 45.86 35.06 75.02 33.98 46.0 Not Reported 4.25 NW 5.37 NW 6.71 NW No 0.000 No Precipitation 05/10/2022 05:29 PM 05/10/2022 05:34 PM 0.000 0.000 0.000 0.000 0.000 Not Reported Not Reported
05/24/2022 07:59 AM 55.22 45.68 34.88 75.02 33.98 45.0 Not Reported 6.93 N 6.26 N 8.05 N No 0.000 No Precipitation 05/10/2022 05:29 PM 05/10/2022 05:34 PM 0.000 0.000 0.000 0.000 0.000 Not Reported Not Reported
05/24/2022 08:04 AM 55.58 45.68 33.80 75.02 33.98 44.0 Not Reported 7.16 N 7.16 N 8.05 N No 0.000 No Precipitation 05/10/2022 05:29 PM 05/10/2022 05:34 PM 0.000 0.000 0.000 0.000 0.000 Not Reported Not Reported
05/24/2022 08:09 AM 56.30 46.04 34.34 75.02 33.98 43.0 Not Reported 6.93 N 6.04 N 8.28 N No 0.000 No Precipitation 05/10/2022 05:29 PM 05/10/2022 05:34 PM 0.000 0.000 0.000 0.000 0.000 Not Reported Not Reported
05/24/2022 08:14 AM 56.66 46.40 35.06 75.02 33.98 44.0 Not Reported 8.05 NW 6.71 N 9.17 N No 0.000 No Precipitation 05/10/2022 05:29 PM 05/10/2022 05:34 PM 0.000 0.000 0.000 0.000 0.000 Not Reported Not Reported
05/24/2022 08:19 AM 56.84 46.22 34.34 75.02 33.98 42.0 Not Reported 7.61 NW 8.50 NW 10.51 NW No 0.000 No Precipitation 05/10/2022 05:29 PM 05/10/2022 05:34 PM 0.000 0.000 0.000 0.000 0.000 Not Reported Not Reported
05/24/2022 08:24 AM 57.20 46.58 34.88 75.02 33.98 42.0 Not Reported 7.83 N 8.28 N 10.51 NW No 0.000 No Precipitation 05/10/2022 05:29 PM 05/10/2022 05:34 PM 0.000 0.000 0.000 0.000 0.000 Not Reported Not Reported
05/24/2022 08:29 AM 57.20 47.12 35.96 75.02 33.98 44.0 Not Reported 8.28 N 6.49 N 9.40 NW No 0.000 No Precipitation 05/10/2022 05:29 PM 05/10/2022 05:34 PM 0.000 0.000 0.000 0.000 0.000 Not Reported Not Reported
05/24/2022 08:34 AM 57.56 46.58 33.98 75.02 33.98 40.0 Not Reported 7.16 NW 4.03 NW 9.62 N No 0.000 No Precipitation 05/10/2022 05:29 PM 05/10/2022 05:34 PM 0.000 0.000 0.000 0.000 0.000 Not Reported Not Reported
05/24/2022 08:39 AM 57.92 46.94 34.70 75.02 33.98 41.0 Not Reported 8.95 N 6.93 N 9.62 NW No 0.000 No Precipitation 05/10/2022 05:29 PM 05/10/2022 05:34 PM 0.000 0.000 0.000 0.000 0.000 Not Reported Not Reported
05/24/2022 08:44 AM 58.46 47.66 36.14 75.02 33.98 43.0 Not Reported 7.61 N 8.72 NW 9.62 NW No 0.000 No Precipitation 05/10/2022 05:29 PM 05/10/2022 05:34 PM 0.000 0.000 0.000 0.000 0.000 Not Reported Not Reported
05/24/2022 08:49 AM 58.46 47.30 35.42 75.02 33.98 41.0 Not Reported 7.61 N 7.83 N 8.95 N No 0.000 No Precipitation 05/10/2022 05:29 PM 05/10/2022 05:34 PM 0.000 0.000 0.000 0.000 0.000 Not Reported Not Reported
05/24/2022 08:54 AM 59.00 47.48 34.70 75.02 33.98 39.0 Not Reported 8.28 NW 8.28 NW 9.62 NW No 0.000 No Precipitation 05/10/2022 05:29 PM 05/10/2022 05:34 PM 0.000 0.000 0.000 0.000 0.000 Not Reported Not Reported
05/24/2022 08:59 AM 59.00 47.84 35.96 75.02 33.98 41.0 Not Reported 7.61 NW 8.95 N 10.74 N No 0.000 No Precipitation 05/10/2022 05:29 PM 05/10/2022 05:34 PM 0.000 0.000 0.000 0.000 0.000 Not Reported Not Reported
05/24/2022 09:04 AM 59.36 47.48 34.52 75.02 33.98 39.0 Not Reported 8.05 N 6.49 N 10.74 N No 0.000 No Precipitation 05/10/2022 05:29 PM 05/10/2022 05:34 PM 0.000 0.000 0.000 0.000 0.000 Not Reported Not Reported
05/24/2022 09:09 AM 60.26 48.56 36.50 75.02 33.98 41.0 Not Reported 8.72 N 7.61 NW 10.07 N No 0.000 No Precipitation 05/10/2022 05:29 PM 05/10/2022 05:34 PM 0.000 0.000 0.000 0.000 0.000 Not Reported Not Reported
05/24/2022 09:14 AM 60.08 47.84 34.70 75.02 33.98 38.0 Not Reported 6.93 N 7.83 N 10.51 N No 0.000 No Precipitation 05/10/2022 05:29 PM 05/10/2022 05:34 PM 0.000 0.000 0.000 0.000 0.000 Not Reported Not Reported
05/24/2022 09:19 AM 60.26 48.20 35.24 75.02 33.98 38.0 Not Reported 8.50 NW 8.50 NW 10.51 N No 0.000 No Precipitation 05/10/2022 05:29 PM 05/10/2022 05:34 PM 0.000 0.000 0.000 0.000 0.000 Not Reported Not Reported
05/24/2022 09:24 AM 60.80 48.56 35.42 75.02 33.98 38.0 Not Reported 8.95 N 8.28 N 10.29 NW No 0.000 No Precipitation 05/10/2022 05:29 PM 05/10/2022 05:34 PM 0.000 0.000 0.000 0.000 0.000 Not Reported Not Reported
05/24/2022 09:29 AM 60.80 48.38 34.88 75.02 33.98 37.0 Not Reported 7.38 NW 7.83 NW 9.84 NW No 0.000 No Precipitation 05/10/2022 05:29 PM 05/10/2022 05:34 PM 0.000 0.000 0.000 0.000 0.000 Not Reported Not Reported
05/24/2022 09:34 AM 61.34 48.02 33.26 75.02 33.98 34.0 Not Reported 9.84 NW 8.72 N 10.96 NW No 0.000 No Precipitation 05/10/2022 05:29 PM 05/10/2022 05:34 PM 0.000 0.000 0.000 0.000 0.000 Not Reported Not Reported
05/24/2022 09:39 AM 61.70 48.56 34.16 75.02 33.98 35.0 Not Reported 6.93 NW 7.16 N 10.96 NW No 0.000 No Precipitation 05/10/2022 05:29 PM 05/10/2022 05:34 PM 0.000 0.000 0.000 0.000 0.000 Not Reported Not Reported
05/24/2022 09:44 AM 61.88 48.20 33.08 75.02 33.98 33.0 Not Reported 7.38 NW 4.92 N 10.07 NW No 0.000 No Precipitation 05/10/2022 05:29 PM 05/10/2022 05:34 PM 0.000 0.000 0.000 0.000 0.000 Not Reported Not Reported
05/24/2022 09:49 AM 62.78 48.92 34.16 75.02 33.98 34.0 Not Reported 8.50 N 8.28 N 10.07 NW No 0.000 No Precipitation 05/10/2022 05:29 PM 05/10/2022 05:34 PM 0.000 0.000 0.000 0.000 0.000 Not Reported Not Reported
05/24/2022 09:54 AM 62.42 48.56 33.62 75.02 33.98 33.0 Not Reported 6.93 NW 7.16 NW 9.62 N No 0.000 No Precipitation 05/10/2022 05:29 PM 05/10/2022 05:34 PM 0.000 0.000 0.000 0.000 0.000 Not Reported Not Reported
05/24/2022 09:59 AM 62.78 48.56 32.90 75.02 33.98 32.0 Not Reported 7.61 NW 3.36 N 8.50 N No 0.000 No Precipitation 05/10/2022 05:29 PM 05/10/2022 05:34 PM 0.000 0.000 0.000 0.000 0.000 Not Reported Not Reported
05/24/2022 10:04 AM 63.50 49.46 34.70 75.02 33.98 34.0 Not Reported 6.93 NW 3.36 NW 8.50 N No 0.000 No Precipitation 05/10/2022 05:29 PM 05/10/2022 05:34 PM 0.000 0.000 0.000 0.000 0.000 Not Reported Not Reported
05/24/2022 10:09 AM 63.32 48.74 32.90 75.02 33.98 31.0 Not Reported 8.95 NW 7.16 NW 10.29 N No 0.000 No Precipitation 05/10/2022 05:29 PM 05/10/2022 05:34 PM 0.000 0.000 0.000 0.000 0.000 Not Reported Not Reported
05/24/2022 10:14 AM 63.86 50.36 36.50 75.02 33.98 36.0 Not Reported 5.82 NW 6.26 NW 10.29 N No 0.000 No Precipitation 05/10/2022 05:29 PM 05/10/2022 05:34 PM 0.000 0.000 0.000 0.000 0.000 Not Reported Not Reported
05/24/2022 10:19 AM 64.22 49.46 33.80 75.02 33.98 32.0 Not Reported 6.04 NW 3.58 NW 8.28 W No 0.000 No Precipitation 05/10/2022 05:29 PM 05/10/2022 05:34 PM 0.000 0.000 0.000 0.000 0.000 Not Reported Not Reported
05/24/2022 10:24 AM 64.04 49.46 33.98 75.02 33.98 32.0 Not Reported 7.83 N 3.80 N 9.62 NW No 0.000 No Precipitation 05/10/2022 05:29 PM 05/10/2022 05:34 PM 0.000 0.000 0.000 0.000 0.000 Not Reported Not Reported
05/24/2022 10:29 AM 64.76 50.00 34.52 75.02 33.98 32.0 Not Reported 6.93 N 8.95 N 9.84 N No 0.000 No Precipitation 05/10/2022 05:29 PM 05/10/2022 05:34 PM 0.000 0.000 0.000 0.000 0.000 Not Reported Not Reported
05/24/2022 10:34 AM 64.22 49.28 33.26 75.02 33.98 31.0 Not Reported 4.25 N 8.50 NW 9.84 N No 0.000 No Precipitation 05/10/2022 05:29 PM 05/10/2022 05:34 PM 0.000 0.000 0.000 0.000 0.000 Not Reported Not Reported
05/24/2022 10:49 AM 65.48 50.00 33.26 75.02 33.98 29.0 Not Reported 5.37 NW 8.05 NW 10.96 NW No 0.000 No Precipitation 05/10/2022 05:29 PM 05/10/2022 05:34 PM 0.000 0.000 0.000 0.000 0.000 Not Reported Not Reported
05/24/2022 10:54 AM 65.12 50.00 34.16 75.02 33.98 31.0 Not Reported 8.28 NW 6.93 W 10.96 NW No 0.000 No Precipitation 05/10/2022 05:29 PM 05/10/2022 05:34 PM 0.000 0.000 0.000 0.000 0.000 Not Reported Not Reported
05/24/2022 10:59 AM 65.48 50.72 35.78 75.02 33.98 33.0 Not Reported 4.92 W 5.59 NW 10.29 NW No 0.000 No Precipitation 05/10/2022 05:29 PM 05/10/2022 05:34 PM 0.000 0.000 0.000 0.000 0.000 Not Reported Not Reported
05/24/2022 11:04 AM 66.20 50.54 34.16 75.02 33.98 30.0 Not Reported 5.59 NW 6.93 NW 8.05 NW No 0.000 No Precipitation 05/10/2022 05:29 PM 05/10/2022 05:34 PM 0.000 0.000 0.000 0.000 0.000 Not Reported Not Reported
05/24/2022 11:09 AM 66.56 50.90 34.52 75.02 33.98 30.0 Not Reported 7.16 N 6.93 N 9.40 N No 0.000 No Precipitation 05/10/2022 05:29 PM 05/10/2022 05:34 PM 0.000 0.000 0.000 0.000 0.000 Not Reported Not Reported
05/24/2022 11:14 AM 67.64 50.72 32.72 75.02 33.98 27.0 Not Reported 7.16 NW 4.47 NW 9.40 N No 0.000 No Precipitation 05/10/2022 05:29 PM 05/10/2022 05:34 PM 0.000 0.000 0.000 0.000 0.000 Not Reported Not Reported
05/24/2022 11:19 AM 67.82 51.62 35.06 75.02 33.98 29.0 Not Reported 8.72 N 4.92 NW 9.84 N No 0.000 No Precipitation 05/10/2022 05:29 PM 05/10/2022 05:34 PM 0.000 0.000 0.000 0.000 0.000 Not Reported Not Reported
05/24/2022 11:24 AM 68.18 51.44 33.98 75.02 33.98 28.0 Not Reported 8.05 N 10.29 N 11.18 N No 0.000 No Precipitation 05/10/2022 05:29 PM 05/10/2022 05:34 PM 0.000 0.000 0.000 0.000 0.000 Not Reported Not Reported
05/24/2022 11:29 AM 66.92 51.08 34.52 75.02 33.98 30.0 Not Reported 9.84 N 7.61 N 11.63 N No 0.000 No Precipitation 05/10/2022 05:29 PM 05/10/2022 05:34 PM 0.000 0.000 0.000 0.000 0.000 Not Reported Not Reported
05/24/2022 11:34 AM 68.36 52.16 36.32 75.02 33.98 30.0 Not Reported 7.61 NW 9.84 N 11.63 N No 0.000 No Precipitation 05/10/2022 05:29 PM 05/10/2022 05:34 PM 0.000 0.000 0.000 0.000 0.000 Not Reported Not Reported
05/24/2022 11:39 AM 68.36 51.44 34.16 75.02 33.98 28.0 Not Reported 8.05 N 10.96 W 12.30 N No 0.000 No Precipitation 05/10/2022 05:29 PM 05/10/2022 05:34 PM 0.000 0.000 0.000 0.000 0.000 Not Reported Not Reported
05/24/2022 11:44 AM 68.00 50.54 32.00 75.02 33.98 25.0 Not Reported 9.17 NW 6.04 NW 13.42 NW No 0.000 No Precipitation 05/10/2022 05:29 PM 05/10/2022 05:34 PM 0.000 0.000 0.000 0.000 0.000 Not Reported Not Reported
05/24/2022 11:49 AM 69.26 51.08 31.64 75.02 33.98 24.0 Not Reported 10.74 NW 12.08 NW 13.42 NW No 0.000 No Precipitation 05/10/2022 05:29 PM 05/10/2022 05:34 PM 0.000 0.000 0.000 0.000 0.000 Not Reported Not Reported
05/24/2022 11:54 AM 69.80 50.90 30.38 75.02 33.98 22.0 Not Reported 9.40 NW 9.84 NW 12.53 NW No 0.000 No Precipitation 05/10/2022 05:29 PM 05/10/2022 05:34 PM 0.000 0.000 0.000 0.000 0.000 Not Reported Not Reported
05/24/2022 11:59 AM 68.72 50.90 31.64 75.02 33.98 24.0 Not Reported 5.37 W 3.13 NW 12.30 NW No 0.000 No Precipitation 05/10/2022 05:29 PM 05/10/2022 05:34 PM 0.000 0.000 0.000 0.000 0.000 Not Reported Not Reported
05/24/2022 12:04 PM 70.16 51.08 29.84 75.02 33.98 21.0 Not Reported 8.05 N 11.41 NW 12.75 NW No 0.000 No Precipitation 05/10/2022 05:29 PM 05/10/2022 05:34 PM 0.000 0.000 0.000 0.000 0.000 Not Reported Not Reported
05/24/2022 12:09 PM 70.16 50.00 25.70 75.02 33.98 18.0 Not Reported 8.95 N 8.95 NW 12.75 NW No 0.000 No Precipitation 05/10/2022 05:29 PM 05/10/2022 05:34 PM 0.000 0.000 0.000 0.000 0.000 Not Reported Not Reported
05/24/2022 12:14 PM 70.52 50.90 28.94 75.02 33.98 21.0 Not Reported 11.63 N 10.51 N 13.65 N No 0.000 No Precipitation 05/10/2022 05:29 PM 05/10/2022 05:34 PM 0.000 0.000 0.000 0.000 0.000 Not Reported Not Reported
05/24/2022 12:19 PM 71.24 49.46 21.20 75.02 33.98 14.0 Not Reported 8.95 N 10.29 NW 13.65 N No 0.000 No Precipitation 05/10/2022 05:29 PM 05/10/2022 05:34 PM 0.000 0.000 0.000 0.000 0.000 Not Reported Not Reported
05/24/2022 12:24 PM 71.60 50.72 25.70 75.02 33.98 17.0 Not Reported 9.17 NW 10.29 N 12.30 NW No 0.000 No Precipitation 05/10/2022 05:29 PM 05/10/2022 05:34 PM 0.000 0.000 0.000 0.000 0.000 Not Reported Not Reported
05/24/2022 12:34 PM 71.06 48.56 17.06 75.02 33.98 12.0 Not Reported 8.72 N 13.42 N 13.42 N No 0.000 No Precipitation 05/10/2022 05:29 PM 05/10/2022 05:34 PM 0.000 0.000 0.000 0.000 0.000 Not Reported Not Reported
05/24/2022 12:39 PM 71.06 50.00 26.42 75.02 33.98 16.0 Not Reported 9.84 N 7.38 NW 13.42 N No 0.000 No Precipitation 05/10/2022 05:29 PM 05/10/2022 05:34 PM 0.000 0.000 0.000 0.000 0.000 Not Reported Not Reported
05/24/2022 12:44 PM 71.42 50.36 24.62 75.02 33.98 17.0 Not Reported 8.72 N 6.71 N 12.53 N No 0.000 No Precipitation 05/10/2022 05:29 PM 05/10/2022 05:34 PM 0.000 0.000 0.000 0.000 0.000 Not Reported Not Reported
05/24/2022 12:49 PM 72.14 50.72 25.34 75.02 33.98 17.0 Not Reported 6.49 N 4.03 N 12.30 NW No 0.000 No Precipitation 05/10/2022 05:29 PM 05/10/2022 05:34 PM 0.000 0.000 0.000 0.000 0.000 Not Reported Not Reported
05/24/2022 12:54 PM 72.32 52.34 31.28 75.02 33.98 21.0 Not Reported 11.18 N 13.20 N 13.20 N No 0.000 No Precipitation 05/10/2022 05:29 PM 05/10/2022 05:34 PM 0.000 0.000 0.000 0.000 0.000 Not Reported Not Reported
05/24/2022 12:59 PM 72.50 51.80 29.30 75.02 33.98 19.0 Not Reported 8.50 NW 7.38 NW 13.20 N No 0.000 No Precipitation 05/10/2022 05:29 PM 05/10/2022 05:34 PM 0.000 0.000 0.000 0.000 0.000 Not Reported Not Reported
05/24/2022 01:04 PM 72.50 50.36 22.64 75.02 33.98 15.0 Not Reported 10.96 NW 12.30 NW 12.75 NW No 0.000 No Precipitation 05/10/2022 05:29 PM 05/10/2022 05:34 PM 0.000 0.000 0.000 0.000 0.000 Not Reported Not Reported
05/24/2022 01:09 PM 72.86 51.98 29.12 75.02 33.98 19.0 Not Reported 9.84 NW 9.40 N 12.97 NW No 0.000 No Precipitation 05/10/2022 05:29 PM 05/10/2022 05:34 PM 0.000 0.000 0.000 0.000 0.000 Not Reported Not Reported
05/24/2022 01:14 PM 72.50 52.52 32.00 75.02 33.98 22.0 Not Reported 8.28 NE 8.50 N 12.97 NW No 0.000 No Precipitation 05/10/2022 05:29 PM 05/10/2022 05:34 PM 0.000 0.000 0.000 0.000 0.000 Not Reported Not Reported
05/24/2022 01:19 PM 72.86 50.90 24.44 75.02 33.98 16.0 Not Reported 10.51 NW 7.38 NW 11.86 NE No 0.000 No Precipitation 05/10/2022 05:29 PM 05/10/2022 05:34 PM 0.000 0.000 0.000 0.000 0.000 Not Reported Not Reported
05/24/2022 01:24 PM 73.04 50.54 22.28 75.02 33.98 14.0 Not Reported 10.07 NW 12.97 NW 13.87 NW No 0.000 No Precipitation 05/10/2022 05:29 PM 05/10/2022 05:34 PM 0.000 0.000 0.000 0.000 0.000 Not Reported Not Reported
05/24/2022 01:29 PM 73.58 50.18 19.22 75.02 33.98 12.0 Not Reported 5.82 NW 6.26 NW 13.87 NW No 0.000 No Precipitation 05/10/2022 05:29 PM 05/10/2022 05:34 PM 0.000 0.000 0.000 0.000 0.000 Not Reported Not Reported
05/24/2022 01:34 PM 73.40 51.62 26.42 75.02 33.98 17.0 Not Reported 6.93 N 7.38 N 13.87 NW No 0.000 No Precipitation 05/10/2022 05:29 PM 05/10/2022 05:34 PM 0.000 0.000 0.000 0.000 0.000 Not Reported Not Reported
05/24/2022 01:39 PM 73.40 52.52 30.20 75.02 33.98 20.0 Not Reported 13.20 N 12.97 N 14.32 N No 0.000 No Precipitation 05/10/2022 05:29 PM 05/10/2022 05:34 PM 0.000 0.000 0.000 0.000 0.000 Not Reported Not Reported
05/24/2022 01:44 PM 73.22 51.62 26.60 75.02 33.98 17.0 Not Reported 7.16 NW 6.26 N 14.32 N No 0.000 No Precipitation 05/10/2022 05:29 PM 05/10/2022 05:34 PM 0.000 0.000 0.000 0.000 0.000 Not Reported Not Reported
05/24/2022 01:49 PM 73.22 52.16 28.94 75.02 33.98 19.0 Not Reported 4.47 N 7.38 NW 14.09 N No 0.000 No Precipitation 05/10/2022 05:29 PM 05/10/2022 05:34 PM 0.000 0.000 0.000 0.000 0.000 Not Reported Not Reported
05/24/2022 01:54 PM 73.58 51.98 27.86 75.02 33.98 18.0 Not Reported 4.47 NW 2.91 NW 8.72 NW No 0.000 No Precipitation 05/10/2022 05:29 PM 05/10/2022 05:34 PM 0.000 0.000 0.000 0.000 0.000 Not Reported Not Reported
05/24/2022 01:59 PM 74.30 52.88 29.84 75.02 33.98 19.0 Not Reported 7.83 NW 7.83 NW 11.86 NW No 0.000 No Precipitation 05/10/2022 05:29 PM 05/10/2022 05:34 PM 0.000 0.000 0.000 0.000 0.000 Not Reported Not Reported
05/24/2022 02:04 PM 73.76 52.34 28.58 75.02 33.98 18.0 Not Reported 9.40 NW 6.93 NW 11.86 NW No 0.000 No Precipitation 05/10/2022 05:29 PM 05/10/2022 05:34 PM 0.000 0.000 0.000 0.000 0.000 Not Reported Not Reported
05/24/2022 02:09 PM 73.76 51.98 27.32 75.02 33.98 17.0 Not Reported 11.18 N 7.38 NW 12.53 N No 0.000 No Precipitation 05/10/2022 05:29 PM 05/10/2022 05:34 PM 0.000 0.000 0.000 0.000 0.000 Not Reported Not Reported
05/24/2022 02:14 PM 74.30 52.52 28.94 75.02 33.98 18.0 Not Reported 10.96 N 9.84 N 14.09 N No 0.000 No Precipitation 05/10/2022 05:29 PM 05/10/2022 05:34 PM 0.000 0.000 0.000 0.000 0.000 Not Reported Not Reported
05/24/2022 02:19 PM 74.30 52.70 29.30 75.02 33.98 18.0 Not Reported 7.16 N 3.13 NW 14.09 N No 0.000 No Precipitation 05/10/2022 05:29 PM 05/10/2022 05:34 PM 0.000 0.000 0.000 0.000 0.000 Not Reported Not Reported
05/24/2022 02:24 PM 74.12 53.06 31.10 75.02 33.98 20.0 Not Reported 9.84 N 10.96 N 11.63 N No 0.000 No Precipitation 05/10/2022 05:29 PM 05/10/2022 05:34 PM 0.000 0.000 0.000 0.000 0.000 Not Reported Not Reported
05/24/2022 02:29 PM 74.48 53.06 30.38 75.02 33.98 19.0 Not Reported 8.95 N 8.05 NW 12.53 N No 0.000 No Precipitation 05/10/2022 05:29 PM 05/10/2022 05:34 PM 0.000 0.000 0.000 0.000 0.000 Not Reported Not Reported
05/24/2022 02:34 PM 73.94 52.52 29.48 75.02 33.98 19.0 Not Reported 12.97 NW 10.74 NW 14.99 NW No 0.000 No Precipitation 05/10/2022 05:29 PM 05/10/2022 05:34 PM 0.000 0.000 0.000 0.000 0.000 Not Reported Not Reported
05/24/2022 02:39 PM 74.30 51.62 25.34 75.38 33.98 15.0 Not Reported 8.05 NW 6.04 NW 14.99 NW No 0.000 No Precipitation 05/10/2022 05:29 PM 05/10/2022 05:34 PM 0.000 0.000 0.000 0.000 0.000 Not Reported Not Reported
05/24/2022 02:44 PM 75.38 52.34 25.52 75.38 33.98 15.0 Not Reported 7.16 NW 12.30 NW 12.30 NW No 0.000 No Precipitation 05/10/2022 05:29 PM 05/10/2022 05:34 PM 0.000 0.000 0.000 0.000 0.000 Not Reported Not Reported
05/24/2022 02:49 PM 74.48 52.34 27.68 75.38 33.98 17.0 Not Reported 7.16 NW 6.26 NW 12.30 NW No 0.000 No Precipitation 05/10/2022 05:29 PM 05/10/2022 05:34 PM 0.000 0.000 0.000 0.000 0.000 Not Reported Not Reported
05/24/2022 02:54 PM 75.38 52.34 26.06 76.10 33.98 15.0 Not Reported 8.72 N 6.71 NW 10.74 NW No 0.000 No Precipitation 05/10/2022 05:29 PM 05/10/2022 05:34 PM 0.000 0.000 0.000 0.000 0.000 Not Reported Not Reported
05/24/2022 02:59 PM 76.46 52.88 26.42 77.18 33.98 15.0 Not Reported 8.95 NW 5.82 N 12.30 NW No 0.000 No Precipitation 05/10/2022 05:29 PM 05/10/2022 05:34 PM 0.000 0.000 0.000 0.000 0.000 Not Reported Not Reported
05/24/2022 03:04 PM 75.02 52.16 26.06 77.18 33.98 16.0 Not Reported 9.62 NW 6.04 NW 12.30 NW No 0.000 No Precipitation 05/10/2022 05:29 PM 05/10/2022 05:34 PM 0.000 0.000 0.000 0.000 0.000 Not Reported Not Reported
05/24/2022 03:09 PM 75.38 53.60 31.10 77.18 33.98 19.0 Not Reported 8.72 NW 11.63 NW 12.08 NW No 0.000 No Precipitation 05/10/2022 05:29 PM 05/10/2022 05:34 PM 0.000 0.000 0.000 0.000 0.000 Not Reported Not Reported
05/24/2022 03:14 PM 75.02 52.52 27.32 77.18 33.98 16.0 Not Reported 11.63 N 8.28 N 15.66 N No 0.000 No Precipitation 05/10/2022 05:29 PM 05/10/2022 05:34 PM 0.000 0.000 0.000 0.000 0.000 Not Reported Not Reported
05/24/2022 03:19 PM 75.38 52.70 27.32 77.18 33.98 16.0 Not Reported 13.20 N 10.07 NW 15.66 N No 0.000 No Precipitation 05/10/2022 05:29 PM 05/10/2022 05:34 PM 0.000 0.000 0.000 0.000 0.000 Not Reported Not Reported
05/24/2022 03:24 PM 74.66 52.70 28.76 77.18 33.98 18.0 Not Reported 9.84 N 10.29 N 15.21 NW No 0.000 No Precipitation 05/10/2022 05:29 PM 05/10/2022 05:34 PM 0.000 0.000 0.000 0.000 0.000 Not Reported Not Reported
05/24/2022 03:29 PM 75.38 53.42 30.20 77.18 33.98 18.0 Not Reported 7.16 N 9.62 N 11.41 N No 0.000 No Precipitation 05/10/2022 05:29 PM 05/10/2022 05:34 PM 0.000 0.000 0.000 0.000 0.000 Not Reported Not Reported
05/24/2022 03:34 PM 77.00 53.60 28.76 77.18 33.98 16.0 Not Reported 11.86 N 10.74 NW 14.32 NW No 0.000 No Precipitation 05/10/2022 05:29 PM 05/10/2022 05:34 PM 0.000 0.000 0.000 0.000 0.000 Not Reported Not Reported
05/24/2022 03:39 PM 76.10 54.32 32.18 77.18 33.98 19.0 Not Reported 8.95 NW 10.74 N 14.32 NW No 0.000 No Precipitation 05/10/2022 05:29 PM 05/10/2022 05:34 PM 0.000 0.000 0.000 0.000 0.000 Not Reported Not Reported
05/24/2022 03:44 PM 76.28 53.96 31.10 77.18 33.98 18.0 Not Reported 11.41 N 14.09 NW 14.54 N No 0.000 No Precipitation 05/10/2022 05:29 PM 05/10/2022 05:34 PM 0.000 0.000 0.000 0.000 0.000 Not Reported Not Reported
05/24/2022 03:49 PM 76.46 54.32 31.64 77.18 33.98 19.0 Not Reported 9.84 NW 12.53 N 14.54 N No 0.000 No Precipitation 05/10/2022 05:29 PM 05/10/2022 05:34 PM 0.000 0.000 0.000 0.000 0.000 Not Reported Not Reported
05/24/2022 03:54 PM 76.82 55.04 33.62 77.18 33.98 20.0 Not Reported 8.72 N 10.51 NW 13.65 NW No 0.000 No Precipitation 05/10/2022 05:29 PM 05/10/2022 05:34 PM 0.000 0.000 0.000 0.000 0.000 Not Reported Not Reported
05/24/2022 03:59 PM 76.64 53.96 30.56 77.54 33.98 18.0 Not Reported 11.41 NW 10.74 NW 13.87 NW No 0.000 No Precipitation 05/10/2022 05:29 PM 05/10/2022 05:34 PM 0.000 0.000 0.000 0.000 0.000 Not Reported Not Reported
05/24/2022 04:04 PM 76.82 53.78 29.48 77.90 33.98 17.0 Not Reported 13.42 NW 13.42 NW 15.21 NW No 0.000 No Precipitation 05/10/2022 05:29 PM 05/10/2022 05:34 PM 0.000 0.000 0.000 0.000 0.000 Not Reported Not Reported
05/24/2022 04:09 PM 77.54 55.04 32.90 77.90 33.98 19.0 Not Reported 8.72 NW 8.50 NW 15.21 NW No 0.000 No Precipitation 05/10/2022 05:29 PM 05/10/2022 05:34 PM 0.000 0.000 0.000 0.000 0.000 Not Reported Not Reported
05/24/2022 04:14 PM 76.10 53.06 27.86 77.90 33.98 16.0 Not Reported 7.38 NW 6.26 N 11.86 NW No 0.000 No Precipitation 05/10/2022 05:29 PM 05/10/2022 05:34 PM 0.000 0.000 0.000 0.000 0.000 Not Reported Not Reported
05/24/2022 04:19 PM 77.54 54.50 31.10 77.90 33.98 18.0 Not Reported 7.16 NW 6.93 NW 11.63 NW No 0.000 No Precipitation 05/10/2022 05:29 PM 05/10/2022 05:34 PM 0.000 0.000 0.000 0.000 0.000 Not Reported Not Reported
05/24/2022 04:24 PM 76.82 54.68 32.54 77.90 33.98 19.0 Not Reported 10.51 NW 10.96 NW 12.08 NW No 0.000 No Precipitation 05/10/2022 05:29 PM 05/10/2022 05:34 PM 0.000 0.000 0.000 0.000 0.000 Not Reported Not Reported
05/24/2022 04:29 PM 77.90 54.68 31.28 77.90 33.98 17.0 Not Reported 4.25 N 14.76 NW 14.76 NW No 0.000 No Precipitation 05/10/2022 05:29 PM 05/10/2022 05:34 PM 0.000 0.000 0.000 0.000 0.000 Not Reported Not Reported
05/24/2022 04:34 PM 76.82 53.96 30.38 77.90 33.98 17.0 Not Reported 9.62 NW 9.17 N 16.78 NW No 0.000 No Precipitation 05/10/2022 05:29 PM 05/10/2022 05:34 PM 0.000 0.000 0.000 0.000 0.000 Not Reported Not Reported
05/24/2022 04:39 PM 76.46 53.42 28.58 77.90 33.98 16.0 Not Reported 4.25 W 4.47 N 16.78 NW No 0.000 No Precipitation 05/10/2022 05:29 PM 05/10/2022 05:34 PM 0.000 0.000 0.000 0.000 0.000 Not Reported Not Reported
05/24/2022 04:44 PM 76.64 54.14 31.28 77.90 33.98 18.0 Not Reported 6.71 NW 9.84 NW 9.84 NW No 0.000 No Precipitation 05/10/2022 05:29 PM 05/10/2022 05:34 PM 0.000 0.000 0.000 0.000 0.000 Not Reported Not Reported
05/24/2022 04:49 PM 76.82 53.42 28.22 77.90 33.98 16.0 Not Reported 7.83 NW 5.82 NW 12.53 NW No 0.000 No Precipitation 05/10/2022 05:29 PM 05/10/2022 05:34 PM 0.000 0.000 0.000 0.000 0.000 Not Reported Not Reported
05/24/2022 04:54 PM 77.36 54.14 30.02 77.90 33.98 17.0 Not Reported 5.14 NW 7.38 NW 12.53 NW No 0.000 No Precipitation 05/10/2022 05:29 PM 05/10/2022 05:34 PM 0.000 0.000 0.000 0.000 0.000 Not Reported Not Reported
05/24/2022 04:59 PM 77.54 54.32 30.38 78.08 33.98 17.0 Not Reported 11.18 NW 11.18 N 13.20 NW No 0.000 No Precipitation 05/10/2022 05:29 PM 05/10/2022 05:34 PM 0.000 0.000 0.000 0.000 0.000 Not Reported Not Reported
05/24/2022 05:04 PM 77.00 53.78 29.30 78.08 33.98 17.0 Not Reported 9.40 N 8.72 N 13.20 NW No 0.000 No Precipitation 05/10/2022 05:29 PM 05/10/2022 05:34 PM 0.000 0.000 0.000 0.000 0.000 Not Reported Not Reported
05/24/2022 05:09 PM 77.54 55.04 33.08 78.08 33.98 19.0 Not Reported 6.93 N 4.92 NW 12.97 N No 0.000 No Precipitation 05/10/2022 05:29 PM 05/10/2022 05:34 PM 0.000 0.000 0.000 0.000 0.000 Not Reported Not Reported
05/24/2022 05:14 PM 77.72 54.14 29.48 78.08 33.98 16.0 Not Reported 8.95 NW 14.99 NW 14.99 NW No 0.000 No Precipitation 05/10/2022 05:29 PM 05/10/2022 05:34 PM 0.000 0.000 0.000 0.000 0.000 Not Reported Not Reported
05/24/2022 05:19 PM 77.72 54.32 30.38 78.44 33.98 17.0 Not Reported 11.63 NW 8.95 NW 14.99 NW No 0.000 No Precipitation 05/10/2022 05:29 PM 05/10/2022 05:34 PM 0.000 0.000 0.000 0.000 0.000 Not Reported Not Reported
05/24/2022 05:24 PM 77.36 54.32 30.56 78.44 33.98 17.0 Not Reported 7.83 N 5.59 N 13.65 NW No 0.000 No Precipitation 05/10/2022 05:29 PM 05/10/2022 05:34 PM 0.000 0.000 0.000 0.000 0.000 Not Reported Not Reported
05/24/2022 05:29 PM 77.54 55.40 33.98 78.44 33.98 20.0 Not Reported 5.14 NW 7.83 NW 11.86 N No 0.000 No Precipitation 05/10/2022 05:29 PM 05/10/2022 05:34 PM 0.000 0.000 0.000 0.000 0.000 Not Reported Not Reported
05/24/2022 05:34 PM 78.62 55.04 31.46 78.62 33.98 17.0 Not Reported 9.62 NW 11.63 NW 11.63 NW No 0.000 No Precipitation 05/10/2022 05:29 PM 05/10/2022 05:34 PM 0.000 0.000 0.000 0.000 0.000 Not Reported Not Reported
05/24/2022 05:39 PM 77.18 54.50 31.46 78.62 33.98 18.0 Not Reported 9.17 NW 10.07 NW 11.63 NW No 0.000 No Precipitation 05/10/2022 05:29 PM 05/10/2022 05:34 PM 0.000 0.000 0.000 0.000 0.000 Not Reported Not Reported
05/24/2022 05:44 PM 77.36 54.86 32.72 78.62 33.98 19.0 Not Reported 9.84 NW 10.29 NW 11.63 NW No 0.000 No Precipitation 05/10/2022 05:29 PM 05/10/2022 05:34 PM 0.000 0.000 0.000 0.000 0.000 Not Reported Not Reported
05/24/2022 05:49 PM 76.28 54.32 32.00 78.62 33.98 19.0 Not Reported 7.38 NW 8.28 NW 11.63 NW No 0.000 No Precipitation 05/10/2022 05:29 PM 05/10/2022 05:34 PM 0.000 0.000 0.000 0.000 0.000 Not Reported Not Reported
05/24/2022 05:54 PM 77.18 54.32 30.56 78.62 33.98 18.0 Not Reported 6.93 NW 8.05 N 9.62 NW No 0.000 No Precipitation 05/10/2022 05:29 PM 05/10/2022 05:34 PM 0.000 0.000 0.000 0.000 0.000 Not Reported Not Reported
05/24/2022 05:59 PM 76.10 54.32 32.54 78.62 33.98 20.0 Not Reported 8.95 NW 10.74 NW 10.74 NW No 0.000 No Precipitation 05/10/2022 05:29 PM 05/10/2022 05:34 PM 0.000 0.000 0.000 0.000 0.000 Not Reported Not Reported
05/24/2022 06:04 PM 75.20 55.04 36.14 78.62 33.98 24.0 Not Reported 8.50 NW 9.17 NW 10.74 NW No 0.000 No Precipitation 05/10/2022 05:29 PM 05/10/2022 05:34 PM 0.000 0.000 0.000 0.000 0.000 Not Reported Not Reported
05/24/2022 06:09 PM 75.74 55.22 35.42 78.62 33.98 23.0 Not Reported 8.95 NW 10.51 NW 12.53 W No 0.000 No Precipitation 05/10/2022 05:29 PM 05/10/2022 05:34 PM 0.000 0.000 0.000 0.000 0.000 Not Reported Not Reported
05/24/2022 06:14 PM 77.00 55.58 35.60 78.62 33.98 22.0 Not Reported 9.17 NW 6.04 NW 12.53 W No 0.000 No Precipitation 05/10/2022 05:29 PM 05/10/2022 05:34 PM 0.000 0.000 0.000 0.000 0.000 Not Reported Not Reported
05/24/2022 06:19 PM 76.28 54.86 33.80 78.62 33.98 21.0 Not Reported 9.40 NW 9.62 NW 10.74 NW No 0.000 No Precipitation 05/10/2022 05:29 PM 05/10/2022 05:34 PM 0.000 0.000 0.000 0.000 0.000 Not Reported Not Reported
05/24/2022 06:24 PM 76.28 55.22 35.24 78.62 33.98 22.0 Not Reported 9.17 NW 7.61 NW 10.96 NW No 0.000 No Precipitation 05/10/2022 05:29 PM 05/10/2022 05:34 PM 0.000 0.000 0.000 0.000 0.000 Not Reported Not Reported
05/24/2022 06:29 PM 76.28 54.68 33.26 78.62 33.98 20.0 Not Reported 4.70 NW 8.05 W 10.96 NW No 0.000 No Precipitation 05/10/2022 05:29 PM 05/10/2022 05:34 PM 0.000 0.000 0.000 0.000 0.000 Not Reported Not Reported
05/24/2022 06:34 PM 76.10 55.22 35.42 78.62 33.98 22.0 Not Reported 6.04 W 5.14 NW 9.84 NW No 0.000 No Precipitation 05/10/2022 05:29 PM 05/10/2022 05:34 PM 0.000 0.000 0.000 0.000 0.000 Not Reported Not Reported
05/24/2022 06:39 PM 75.02 54.86 35.60 78.62 33.98 23.0 Not Reported 9.40 NW 7.38 NW 10.96 NW No 0.000 No Precipitation 05/10/2022 05:29 PM 05/10/2022 05:34 PM 0.000 0.000 0.000 0.000 0.000 Not Reported Not Reported
05/24/2022 06:44 PM 75.92 54.50 33.44 78.62 33.98 21.0 Not Reported 7.38 NW 8.95 NW 10.96 NW No 0.000 No Precipitation 05/10/2022 05:29 PM 05/10/2022 05:34 PM 0.000 0.000 0.000 0.000 0.000 Not Reported Not Reported
05/24/2022 06:49 PM 75.20 55.40 37.22 78.62 33.98 25.0 Not Reported 8.50 NW 6.26 NW 9.62 NW No 0.000 No Precipitation 05/10/2022 05:29 PM 05/10/2022 05:34 PM 0.000 0.000 0.000 0.000 0.000 Not Reported Not Reported
05/24/2022 06:54 PM 76.64 54.68 33.08 78.62 33.98 20.0 Not Reported 8.72 NW 9.40 NW 11.63 NW No 0.000 No Precipitation 05/10/2022 05:29 PM 05/10/2022 05:34 PM 0.000 0.000 0.000 0.000 0.000 Not Reported Not Reported
05/24/2022 06:59 PM 75.92 53.96 31.46 78.62 33.98 19.0 Not Reported 9.40 NW 9.84 NW 11.63 NW No 0.000 No Precipitation 05/10/2022 05:29 PM 05/10/2022 05:34 PM 0.000 0.000 0.000 0.000 0.000 Not Reported Not Reported
05/24/2022 07:04 PM 75.20 55.58 38.12 78.62 33.98 26.0 Not Reported 8.05 NW 8.72 NW 10.29 NW No 0.000 No Precipitation 05/10/2022 05:29 PM 05/10/2022 05:34 PM 0.000 0.000 0.000 0.000 0.000 Not Reported Not Reported
05/24/2022 07:09 PM 74.84 54.86 35.96 78.62 33.98 24.0 Not Reported 8.28 NW 4.92 NW 10.51 NW No 0.000 No Precipitation 05/10/2022 05:29 PM 05/10/2022 05:34 PM 0.000 0.000 0.000 0.000 0.000 Not Reported Not Reported
05/24/2022 07:14 PM 73.94 54.68 36.50 78.62 33.98 25.0 Not Reported 9.17 NW 7.38 NW 10.51 NW No 0.000 No Precipitation 05/10/2022 05:29 PM 05/10/2022 05:34 PM 0.000 0.000 0.000 0.000 0.000 Not Reported Not Reported
05/24/2022 07:19 PM 73.40 53.42 33.44 78.62 33.98 23.0 Not Reported 7.83 NW 6.04 W 10.07 NW No 0.000 No Precipitation 05/10/2022 05:29 PM 05/10/2022 05:34 PM 0.000 0.000 0.000 0.000 0.000 Not Reported Not Reported
05/24/2022 07:24 PM 73.58 54.86 37.40 78.62 33.98 26.0 Not Reported 7.16 NW 6.71 NW 8.28 NW No 0.000 No Precipitation 05/10/2022 05:29 PM 05/10/2022 05:34 PM 0.000 0.000 0.000 0.000 0.000 Not Reported Not Reported
05/24/2022 07:29 PM 72.68 53.60 35.06 78.62 33.98 25.0 Not Reported 6.71 NW 4.25 NW 7.83 NW No 0.000 No Precipitation 05/10/2022 05:29 PM 05/10/2022 05:34 PM 0.000 0.000 0.000 0.000 0.000 Not Reported Not Reported
05/24/2022 07:34 PM 74.30 54.14 34.70 78.62 33.98 23.0 Not Reported 5.37 W 3.58 NW 7.83 NW No 0.000 No Precipitation 05/10/2022 05:29 PM 05/10/2022 05:34 PM 0.000 0.000 0.000 0.000 0.000 Not Reported Not Reported
05/24/2022 07:39 PM 74.12 53.60 32.90 78.62 33.98 21.0 Not Reported 2.91 W 4.47 NW 6.04 W No 0.000 No Precipitation 05/10/2022 05:29 PM 05/10/2022 05:34 PM 0.000 0.000 0.000 0.000 0.000 Not Reported Not Reported
05/24/2022 07:44 PM 73.94 53.78 33.26 78.62 33.98 22.0 Not Reported 3.80 W 2.68 W 5.14 NW No 0.000 No Precipitation 05/10/2022 05:29 PM 05/10/2022 05:34 PM 0.000 0.000 0.000 0.000 0.000 Not Reported Not Reported
05/24/2022 07:49 PM 73.22 53.42 33.44 78.62 33.98 23.0 Not Reported 3.80 NW 5.82 NW 5.82 NW No 0.000 No Precipitation 05/10/2022 05:29 PM 05/10/2022 05:34 PM 0.000 0.000 0.000 0.000 0.000 Not Reported Not Reported
05/24/2022 07:54 PM 72.86 52.88 32.00 78.62 33.98 22.0 Not Reported 3.58 NW 3.80 NW 5.82 NW No 0.000 No Precipitation 05/10/2022 05:29 PM 05/10/2022 05:34 PM 0.000 0.000 0.000 0.000 0.000 Not Reported Not Reported
05/24/2022 07:59 PM 71.24 52.52 33.80 78.62 33.98 25.0 Not Reported 2.01 NW 3.36 W 5.37 W No 0.000 No Precipitation 05/10/2022 05:29 PM 05/10/2022 05:34 PM 0.000 0.000 0.000 0.000 0.000 Not Reported Not Reported
05/24/2022 08:04 PM 70.34 52.52 34.88 78.62 33.98 27.0 Not Reported 3.58 W 3.80 W 3.80 W No 0.000 No Precipitation 05/10/2022 05:29 PM 05/10/2022 05:34 PM 0.000 0.000 0.000 0.000 0.000 Not Reported Not Reported
05/24/2022 08:09 PM 68.54 51.26 33.08 78.62 33.98 26.0 Not Reported 3.13 W 2.68 W 3.80 W No 0.000 No Precipitation 05/10/2022 05:29 PM 05/10/2022 05:34 PM 0.000 0.000 0.000 0.000 0.000 Not Reported Not Reported
05/24/2022 08:14 PM 69.44 51.98 34.34 78.62 33.98 27.0 Not Reported 3.13 W 3.13 W 3.58 W No 0.000 No Precipitation 05/10/2022 05:29 PM 05/10/2022 05:34 PM 0.000 0.000 0.000 0.000 0.000 Not Reported Not Reported
05/24/2022 08:19 PM 67.46 51.26 34.52 78.62 33.98 29.0 Not Reported 2.46 W 0.00 W 3.80 W No 0.000 No Precipitation 05/10/2022 05:29 PM 05/10/2022 05:34 PM 0.000 0.000 0.000 0.000 0.000 Not Reported Not Reported
05/24/2022 08:24 PM 66.56 50.90 34.70 78.62 33.98 30.0 Not Reported 0.89 NW 1.34 W 3.80 W No 0.000 No Precipitation 05/10/2022 05:29 PM 05/10/2022 05:34 PM 0.000 0.000 0.000 0.000 0.000 Not Reported Not Reported
05/24/2022 08:29 PM 67.82 51.08 33.62 78.62 33.98 28.0 Not Reported 4.25 W 3.58 W 4.92 W No 0.000 No Precipitation 05/10/2022 05:29 PM 05/10/2022 05:34 PM 0.000 0.000 0.000 0.000 0.000 Not Reported Not Reported
05/24/2022 08:34 PM 67.82 50.72 32.18 78.62 33.98 26.0 Not Reported 4.03 NW 4.70 NW 4.92 W No 0.000 No Precipitation 05/10/2022 05:29 PM 05/10/2022 05:34 PM 0.000 0.000 0.000 0.000 0.000 Not Reported Not Reported
05/24/2022 08:39 PM 68.72 51.08 32.36 78.62 33.98 25.0 Not Reported 4.03 NW 2.68 NW 6.04 NW No 0.000 No Precipitation 05/10/2022 05:29 PM 05/10/2022 05:34 PM 0.000 0.000 0.000 0.000 0.000 Not Reported Not Reported
05/24/2022 08:44 PM 67.82 51.08 33.44 78.62 33.98 27.0 Not Reported 2.91 NW 3.80 NW 6.04 NW No 0.000 No Precipitation 05/10/2022 05:29 PM 05/10/2022 05:34 PM 0.000 0.000 0.000 0.000 0.000 Not Reported Not Reported
05/24/2022 08:49 PM 67.64 50.90 33.08 78.62 33.98 27.0 Not Reported 5.37 NW 6.93 NW 7.38 NW No 0.000 No Precipitation 05/10/2022 05:29 PM 05/10/2022 05:34 PM 0.000 0.000 0.000 0.000 0.000 Not Reported Not Reported
05/24/2022 08:54 PM 65.12 50.18 34.52 78.62 33.98 31.0 Not Reported 5.82 NW 5.37 NW 7.38 NW No 0.000 No Precipitation 05/10/2022 05:29 PM 05/10/2022 05:34 PM 0.000 0.000 0.000 0.000 0.000 Not Reported Not Reported
05/24/2022 08:59 PM 64.58 50.00 34.70 78.62 33.98 32.0 Not Reported 5.82 NW 5.37 NW 6.93 NW No 0.000 No Precipitation 05/10/2022 05:29 PM 05/10/2022 05:34 PM 0.000 0.000 0.000 0.000 0.000 Not Reported Not Reported
05/24/2022 09:04 PM 64.22 49.82 34.70 78.62 33.98 33.0 Not Reported 5.82 N 6.04 N 6.49 NW No 0.000 No Precipitation 05/10/2022 05:29 PM 05/10/2022 05:34 PM 0.000 0.000 0.000 0.000 0.000 Not Reported Not Reported
05/24/2022 09:09 PM 64.40 50.00 34.70 78.62 33.98 33.0 Not Reported 6.04 NW 5.59 NW 6.71 NW No 0.000 No Precipitation 05/10/2022 05:29 PM 05/10/2022 05:34 PM 0.000 0.000 0.000 0.000 0.000 Not Reported Not Reported
05/24/2022 09:14 PM 64.04 49.64 34.34 78.62 33.98 33.0 Not Reported 6.26 N 6.26 N 6.71 NW No 0.000 No Precipitation 05/10/2022 05:29 PM 05/10/2022 05:34 PM 0.000 0.000 0.000 0.000 0.000 Not Reported Not Reported
05/24/2022 09:19 PM 63.32 49.10 33.62 78.62 33.98 32.0 Not Reported 5.82 N 5.82 N 6.49 N No 0.000 No Precipitation 05/10/2022 05:29 PM 05/10/2022 05:34 PM 0.000 0.000 0.000 0.000 0.000 Not Reported Not Reported
05/24/2022 09:24 PM 63.14 48.92 33.44 78.62 33.98 32.0 Not Reported 4.47 NW 4.25 NW 6.26 N No 0.000 No Precipitation 05/10/2022 05:29 PM 05/10/2022 05:34 PM 0.000 0.000 0.000 0.000 0.000 Not Reported Not Reported
05/24/2022 09:29 PM 62.96 48.92 33.62 78.62 33.98 33.0 Not Reported 4.47 NW 4.03 NW 5.14 N No 0.000 No Precipitation 05/10/2022 05:29 PM 05/10/2022 05:34 PM 0.000 0.000 0.000 0.000 0.000 Not Reported Not Reported
05/24/2022 09:34 PM 63.32 49.10 33.80 78.62 33.98 33.0 Not Reported 4.47 N 4.47 N 4.92 N No 0.000 No Precipitation 05/10/2022 05:29 PM 05/10/2022 05:34 PM 0.000 0.000 0.000 0.000 0.000 Not Reported Not Reported
05/24/2022 09:39 PM 63.68 49.28 33.44 78.62 33.98 32.0 Not Reported 5.59 N 4.92 N 5.82 N No 0.000 No Precipitation 05/10/2022 05:29 PM 05/10/2022 05:34 PM 0.000 0.000 0.000 0.000 0.000 Not Reported Not Reported
05/24/2022 09:44 PM 62.96 49.10 33.98 78.62 33.98 33.0 Not Reported 3.58 N 4.92 N 5.82 N No 0.000 No Precipitation 05/10/2022 05:29 PM 05/10/2022 05:34 PM 0.000 0.000 0.000 0.000 0.000 Not Reported Not Reported
05/24/2022 09:49 PM 62.78 49.10 34.34 78.62 33.98 34.0 Not Reported 2.24 N 3.13 N 5.82 N No 0.000 No Precipitation 05/10/2022 05:29 PM 05/10/2022 05:34 PM 0.000 0.000 0.000 0.000 0.000 Not Reported Not Reported
05/24/2022 09:54 PM 61.34 48.56 35.06 78.62 33.98 37.0 Not Reported 1.79 NW 1.79 W 5.14 N No 0.000 No Precipitation 05/10/2022 05:29 PM 05/10/2022 05:34 PM 0.000 0.000 0.000 0.000 0.000 Not Reported Not Reported
05/24/2022 09:59 PM 62.42 48.92 34.34 78.62 33.98 34.0 Not Reported 3.13 NW 3.36 W 3.36 W No 0.000 No Precipitation 05/10/2022 05:29 PM 05/10/2022 05:34 PM 0.000 0.000 0.000 0.000 0.000 Not Reported Not Reported
05/24/2022 10:04 PM 62.06 48.74 34.52 78.62 33.98 35.0 Not Reported 4.03 NW 3.36 W 4.25 W No 0.000 No Precipitation 05/10/2022 05:29 PM 05/10/2022 05:34 PM 0.000 0.000 0.000 0.000 0.000 Not Reported Not Reported
05/24/2022 10:09 PM 60.62 48.38 35.42 78.62 33.98 39.0 Not Reported 3.80 NW 3.58 NW 4.25 NW No 0.000 No Precipitation 05/10/2022 05:29 PM 05/10/2022 05:34 PM 0.000 0.000 0.000 0.000 0.000 Not Reported Not Reported
05/24/2022 10:14 PM 61.70 48.92 35.60 78.62 33.98 37.0 Not Reported 3.36 W 3.36 W 4.25 NW No 0.000 No Precipitation 05/10/2022 05:29 PM 05/10/2022 05:34 PM 0.000 0.000 0.000 0.000 0.000 Not Reported Not Reported
05/24/2022 10:19 PM 62.96 49.28 35.06 78.62 33.98 35.0 Not Reported 3.80 W 4.25 NW 4.25 NW No 0.000 No Precipitation 05/10/2022 05:29 PM 05/10/2022 05:34 PM 0.000 0.000 0.000 0.000 0.000 Not Reported Not Reported
05/24/2022 10:24 PM 62.60 49.28 35.06 78.62 33.98 35.0 Not Reported 5.14 NW 5.14 NW 5.37 NW No 0.000 No Precipitation 05/10/2022 05:29 PM 05/10/2022 05:34 PM 0.000 0.000 0.000 0.000 0.000 Not Reported Not Reported
05/24/2022 10:29 PM 63.50 49.64 34.88 78.62 33.98 34.0 Not Reported 6.93 NW 6.93 NW 7.38 NW No 0.000 No Precipitation 05/10/2022 05:29 PM 05/10/2022 05:34 PM 0.000 0.000 0.000 0.000 0.000 Not Reported Not Reported
05/24/2022 10:34 PM 63.32 49.64 35.24 78.62 33.98 35.0 Not Reported 7.16 NW 6.71 NW 7.83 NW No 0.000 No Precipitation 05/10/2022 05:29 PM 05/10/2022 05:34 PM 0.000 0.000 0.000 0.000 0.000 Not Reported Not Reported
05/24/2022 10:39 PM 62.96 49.46 35.24 78.62 33.98 35.0 Not Reported 6.93 NW 6.71 NW 8.05 NW No 0.000 No Precipitation 05/10/2022 05:29 PM 05/10/2022 05:34 PM 0.000 0.000 0.000 0.000 0.000 Not Reported Not Reported
05/24/2022 10:44 PM 62.78 49.28 34.88 78.62 33.98 35.0 Not Reported 6.26 N 5.37 NW 8.05 NW No 0.000 No Precipitation 05/10/2022 05:29 PM 05/10/2022 05:34 PM 0.000 0.000 0.000 0.000 0.000 Not Reported Not Reported
05/24/2022 10:49 PM 62.24 49.10 35.24 78.62 33.98 36.0 Not Reported 3.80 NW 4.03 N 7.38 NW No 0.000 No Precipitation 05/10/2022 05:29 PM 05/10/2022 05:34 PM 0.000 0.000 0.000 0.000 0.000 Not Reported Not Reported
05/24/2022 10:54 PM 60.80 48.92 36.50 78.62 33.98 40.0 Not Reported 1.34 NW 2.91 W 5.14 NW No 0.000 No Precipitation 05/10/2022 05:29 PM 05/10/2022 05:34 PM 0.000 0.000 0.000 0.000 0.000 Not Reported Not Reported
05/24/2022 10:59 PM 60.44 48.56 36.32 78.62 33.98 40.0 Not Reported 1.79 W 0.89 W 3.58 NW No 0.000 No Precipitation 05/10/2022 05:29 PM 05/10/2022 05:34 PM 0.000 0.000 0.000 0.000 0.000 Not Reported Not Reported
05/24/2022 11:04 PM 59.00 48.20 36.68 78.62 33.98 43.0 Not Reported 2.01 W 2.01 NW 2.24 W No 0.000 No Precipitation 05/10/2022 05:29 PM 05/10/2022 05:34 PM 0.000 0.000 0.000 0.000 0.000 Not Reported Not Reported
05/24/2022 11:09 PM 59.90 48.20 35.96 78.62 33.98 40.0 Not Reported 2.24 NW 2.68 NW 2.91 NW No 0.000 No Precipitation 05/10/2022 05:29 PM 05/10/2022 05:34 PM 0.000 0.000 0.000 0.000 0.000 Not Reported Not Reported
05/24/2022 11:14 PM 59.90 48.20 35.78 78.62 33.98 40.0 Not Reported 3.36 NW 3.13 NW 3.58 NW No 0.000 No Precipitation 05/10/2022 05:29 PM 05/10/2022 05:34 PM 0.000 0.000 0.000 0.000 0.000 Not Reported Not Reported
05/24/2022 11:19 PM 59.72 48.20 36.14 78.62 33.98 41.0 Not Reported 3.36 NW 3.13 N 3.80 N No 0.000 No Precipitation 05/10/2022 05:29 PM 05/10/2022 05:34 PM 0.000 0.000 0.000 0.000 0.000 Not Reported Not Reported
05/24/2022 11:24 PM 60.08 48.38 36.14 78.62 33.98 40.0 Not Reported 3.80 NW 4.03 NW 4.03 NW No 0.000 No Precipitation 05/10/2022 05:29 PM 05/10/2022 05:34 PM 0.000 0.000 0.000 0.000 0.000 Not Reported Not Reported
05/24/2022 11:29 PM 60.80 48.74 36.14 78.62 33.98 39.0 Not Reported 3.80 NW 3.80 NW 4.25 NW No 0.000 No Precipitation 05/10/2022 05:29 PM 05/10/2022 05:34 PM 0.000 0.000 0.000 0.000 0.000 Not Reported Not Reported
05/24/2022 11:34 PM 60.98 48.92 36.32 78.62 33.98 39.0 Not Reported 4.25 NW 3.80 NW 4.70 NW No 0.000 No Precipitation 05/10/2022 05:29 PM 05/10/2022 05:34 PM 0.000 0.000 0.000 0.000 0.000 Not Reported Not Reported
05/24/2022 11:39 PM 60.98 49.10 36.86 78.62 33.98 40.0 Not Reported 4.47 NW 4.47 NW 4.70 NW No 0.000 No Precipitation 05/10/2022 05:29 PM 05/10/2022 05:34 PM 0.000 0.000 0.000 0.000 0.000 Not Reported Not Reported
05/24/2022 11:44 PM 57.20 47.48 37.04 78.62 33.98 46.0 Not Reported 2.46 NW 2.46 W 4.70 NW No 0.000 No Precipitation 05/10/2022 05:29 PM 05/10/2022 05:34 PM 0.000 0.000 0.000 0.000 0.000 Not Reported Not Reported
05/24/2022 11:49 PM 54.68 46.04 36.86 78.62 33.98 50.0 Not Reported 2.01 W 3.13 SW 4.03 NW No 0.000 No Precipitation 05/10/2022 05:29 PM 05/10/2022 05:34 PM 0.000 0.000 0.000 0.000 0.000 Not Reported Not Reported
05/24/2022 11:54 PM 54.32 45.86 36.32 78.62 33.98 50.0 Not Reported 2.91 SW 3.36 SW 3.80 SW No 0.000 No Precipitation 05/10/2022 05:29 PM 05/10/2022 05:34 PM 0.000 0.000 0.000 0.000 0.000 Not Reported Not Reported
05/24/2022 11:59 PM 54.50 46.04 37.04 78.62 33.98 51.0 Not Reported 3.80 SW 3.58 SW 4.70 SW No 0.000 No Precipitation 05/10/2022 05:29 PM 05/10/2022 05:34 PM 0.000 0.000 0.000 0.000 0.000 Not Reported Not Reported